Weather reports worldwide

Advertisment
Palma De Mallorca, Spain (8301): temperature & dewpoint: 01.06.2020 04:00:00 - 07.06.2020 04:00:00 (CEST)Palma De Mallorca, Spain (8301): wind speed & gusts: 01.06.2020 04:00:00 - 07.06.2020 04:00:00 (CEST)Palma De Mallorca, Spain (8301): wind direction: 01.06.2020 04:00:00 - 07.06.2020 04:00:00 (CEST)Palma De Mallorca, Spain (8301): precipitation: 01.06.2020 04:00:00 - 07.06.2020 04:00:00 (CEST)
Date & Time tt [°C] td [°C] ff [km/h] ff [kn] fx [km/h] fx [kn] dd rr [mm]
07.06.2020 04:00:00 - - - - - - - -
07.06.2020 03:00:00 19,9 17,9 0 0 3 1 N 0,0
07.06.2020 02:00:00 20,4 18,3 0 0 9 5 N -
07.06.2020 01:00:00 20,7 18,6 0 0 6 3 S 0,0
07.06.2020 00:00:00 20,9 18,8 1 0 7 4 ESE 0,0
06.06.2020 23:00:00 21,4 19,0 4 2 11 6 S 0,0
06.06.2020 22:00:00 21,7 18,7 0 0 8 4 S 0,0
06.06.2020 21:00:00 21,8 18,6 5 3 16 9 S 0,0
06.06.2020 20:00:00 22,3 18,5 6 4 14 8 S -
06.06.2020 19:00:00 22,6 19,0 9 5 17 9 SSW 0,0
06.06.2020 18:00:00 22,7 19,1 8 5 18 10 S 0,0
06.06.2020 17:00:00 23,3 18,8 9 5 20 11 S 0,0
06.06.2020 16:00:00 24,0 19,7 12 6 27 15 S 0,0
06.06.2020 15:00:00 23,8 19,9 13 7 24 13 SSW 0,0
06.06.2020 14:00:00 23,8 19,9 11 6 22 12 SSW -
06.06.2020 13:00:00 23,8 19,3 12 6 23 12 S 0,0
06.06.2020 12:00:00 23,3 18,8 9 5 14 7 S 0,0
06.06.2020 11:00:00 23,0 18,8 5 3 9 5 SSE 0,0
06.06.2020 10:00:00 22,5 18,2 2 1 7 4 ESE 0,0
06.06.2020 09:00:00 20,8 14,4 3 2 7 4 ENE 0,0
06.06.2020 08:00:00 19,8 13,5 5 3 9 5 NNE -
06.06.2020 07:00:00 18,6 13,5 3 2 7 4 NNE 0,0
06.06.2020 06:00:00 17,8 13,1 4 2 6 4 NNE 0,0
06.06.2020 05:00:00 18,1 13,4 3 2 5 3 N 0,0
06.06.2020 04:00:00 18,1 13,0 0 0 5 3 N 0,0
06.06.2020 03:00:00 18,7 13,4 2 1 9 5 N 0,0
06.06.2020 02:00:00 19,1 11,9 4 2 9 5 N -
06.06.2020 01:00:00 20,1 14,2 1 0 17 9 NNE 0,0
06.06.2020 00:00:00 20,4 14,3 0 0 14 8 ESE 0,0
05.06.2020 23:00:00 20,4 13,9 4 2 16 9 WSW 0,0
05.06.2020 22:00:00 20,8 13,0 6 3 19 10 WSW 0,0
05.06.2020 21:00:00 21,9 9,8 5 3 20 11 W 0,0
05.06.2020 20:00:00 23,0 10,0 5 3 16 9 W -
05.06.2020 19:00:00 23,8 8,3 8 4 20 11 NE 0,0
05.06.2020 18:00:00 24,0 8,8 3 2 21 11 WNW 0,0
05.06.2020 17:00:00 24,9 9,6 4 2 24 13 WNW 0,0
05.06.2020 16:00:00 25,4 10,8 8 4 26 14 W 0,0
05.06.2020 15:00:00 24,6 10,0 4 2 27 15 ENE 0,0
05.06.2020 14:00:00 23,5 10,9 12 6 32 18 NNW -
05.06.2020 13:00:00 23,4 9,0 9 5 41 22 NW 0,0
05.06.2020 12:00:00 22,4 8,9 9 5 35 19 NNW 0,0
05.06.2020 11:00:00 22,8 8,9 7 4 41 22 NNW 0,0
05.06.2020 10:00:00 21,9 10,0 15 8 41 22 NW 0,0
05.06.2020 09:00:00 21,0 11,9 6 3 27 15 NNE 0,0
05.06.2020 08:00:00 19,8 11,6 3 1 17 9 N -
05.06.2020 07:00:00 19,0 11,6 2 1 19 11 W 0,0
05.06.2020 06:00:00 19,2 11,2 6 3 34 18 NW 0,0
05.06.2020 05:00:00 19,6 11,1 6 4 37 20 NNW 0,0
05.06.2020 04:00:00 20,3 9,8 6 3 30 16 NNW 0,0
05.06.2020 03:00:00 20,8 10,0 8 4 25 14 WNW 0,0
05.06.2020 02:00:00 20,0 14,3 1 1 10 5 SW -
05.06.2020 01:00:00 19,9 15,3 3 1 16 8 WSW 0,0
05.06.2020 00:00:00 20,0 15,0 8 4 21 12 W 0,0
04.06.2020 23:00:00 19,9 15,2 5 3 19 11 WSW 0,0
04.06.2020 22:00:00 19,6 15,1 3 2 19 10 W 0,0
04.06.2020 21:00:00 19,3 14,3 7 4 23 12 WSW 0,0
04.06.2020 20:00:00 19,6 13,8 8 4 26 14 W -
04.06.2020 19:00:00 20,3 13,5 5 3 22 12 W 0,0
04.06.2020 18:00:00 19,3 14,3 5 3 10 5 SW 0,1
04.06.2020 17:00:00 18,8 14,0 1 1 19 10 N 1,6
04.06.2020 16:00:00 21,4 11,7 7 4 33 18 NNW 0,0
04.06.2020 15:00:00 20,9 12,5 14 7 43 23 NNW 0,1
04.06.2020 14:00:00 25,1 15,2 13 7 41 22 NNW -
04.06.2020 13:00:00 25,6 14,7 12 6 35 19 SSW 0,0
04.06.2020 12:00:00 25,9 17,5 8 4 22 12 SSW 0,0
04.06.2020 11:00:00 24,8 18,2 9 5 16 9 S 0,0
04.06.2020 10:00:00 23,8 18,0 8 4 15 8 S 0,0
04.06.2020 09:00:00 22,5 18,2 7 4 13 7 S 0,0
04.06.2020 08:00:00 21,6 18,8 4 2 8 5 SSW -
04.06.2020 07:00:00 20,7 16,7 3 1 6 3 N 0,0
04.06.2020 06:00:00 20,7 17,1 3 2 11 6 NNE 0,0
04.06.2020 05:00:00 21,0 18,5 1 0 14 8 ESE 0,0
04.06.2020 04:00:00 20,9 18,1 5 3 12 6 S 0,0
04.06.2020 03:00:00 20,7 17,1 6 4 13 7 S 0,0
04.06.2020 02:00:00 20,8 17,4 8 4 16 9 S -
04.06.2020 01:00:00 21,0 17,1 6 3 11 6 SSW 0,0
04.06.2020 00:00:00 21,2 17,2 2 1 15 8 NNW 0,0
03.06.2020 23:00:00 21,2 17,4 8 4 15 8 S 0,0
03.06.2020 22:00:00 21,4 17,8 8 4 19 10 S 0,0
03.06.2020 21:00:00 21,6 18,2 10 5 18 10 S 0,0
03.06.2020 20:00:00 22,0 18,0 8 4 16 8 S -
03.06.2020 19:00:00 22,4 17,1 9 5 16 9 S 0,0
03.06.2020 18:00:00 23,0 16,0 9 5 16 8 S 0,0
03.06.2020 17:00:00 23,6 16,1 9 5 17 9 S 0,0
03.06.2020 16:00:00 23,7 15,7 8 5 19 11 S 0,0
03.06.2020 15:00:00 23,7 16,7 9 5 20 11 S 0,0
03.06.2020 14:00:00 23,9 16,1 10 6 19 10 S -
03.06.2020 13:00:00 23,2 16,5 9 5 16 9 S 0,0
03.06.2020 12:00:00 22,7 17,1 9 5 14 8 S 0,0
03.06.2020 11:00:00 23,2 17,2 6 3 12 6 SSE 0,0
03.06.2020 10:00:00 23,0 16,6 6 3 9 5 SE 0,0
03.06.2020 09:00:00 21,9 13,6 3 2 7 4 E 0,0
03.06.2020 08:00:00 20,0 12,2 2 1 4 2 NNE -
03.06.2020 07:00:00 18,7 11,8 0 0 3 2 NNE 0,0
03.06.2020 06:00:00 19,2 12,4 1 1 6 3 NNE 0,0
03.06.2020 05:00:00 18,9 12,8 1 1 5 3 NNE 0,0
03.06.2020 04:00:00 19,4 12,8 0 0 6 3 N 0,0
03.06.2020 03:00:00 20,3 12,0 0 0 3 2 N 0,0
03.06.2020 02:00:00 20,9 11,6 3 1 9 5 WNW -
03.06.2020 01:00:00 20,8 13,5 3 2 6 3 N 0,0
03.06.2020 00:00:00 21,3 13,9 2 1 6 3 SW 0,0
02.06.2020 23:00:00 21,4 15,3 1 1 8 4 SSW 0,0
02.06.2020 22:00:00 21,6 15,7 4 2 11 6 SSW 0,0
02.06.2020 21:00:00 21,8 16,0 6 4 14 8 SSW 0,0
02.06.2020 20:00:00 22,3 16,1 7 4 18 10 SSW -
02.06.2020 19:00:00 22,5 16,7 8 4 19 10 SSW 0,0
02.06.2020 18:00:00 22,9 16,6 11 6 19 11 SSW 0,0
02.06.2020 17:00:00 23,5 17,1 13 7 21 12 SSW 0,0
02.06.2020 16:00:00 23,6 16,1 12 6 23 12 SSW 0,0
02.06.2020 15:00:00 23,5 17,9 10 5 21 11 S 0,0
02.06.2020 14:00:00 23,4 18,5 9 5 22 12 SSW -
02.06.2020 13:00:00 23,8 13,9 10 5 18 10 S 0,0
02.06.2020 12:00:00 23,3 17,1 9 5 16 9 SSW 0,0
02.06.2020 11:00:00 24,5 11,4 7 4 10 6 S 0,0
02.06.2020 10:00:00 24,1 9,3 4 2 9 5 SE 0,0
02.06.2020 09:00:00 21,9 9,0 5 3 11 6 NE 0,0
02.06.2020 08:00:00 19,7 11,4 5 3 8 4 NE -
02.06.2020 07:00:00 18,2 11,2 4 2 6 3 NNE 0,0
02.06.2020 06:00:00 17,6 11,4 0 0 5 3 NNE 0,0
02.06.2020 05:00:00 18,1 11,0 2 1 6 3 NNE 0,0
02.06.2020 04:00:00 18,4 11,0 4 2 8 4 N 0,0
02.06.2020 03:00:00 19,2 12,0 0 0 6 3 ENE 0,0
02.06.2020 02:00:00 20,1 12,8 0 0 6 3 NNE -
02.06.2020 01:00:00 21,0 13,2 3 2 8 5 ENE 0,0
02.06.2020 00:00:00 21,4 12,2 2 1 10 5 ESE 0,0
01.06.2020 23:00:00 21,9 14,8 2 1 9 5 SSE 0,0
01.06.2020 22:00:00 21,6 14,7 5 3 13 7 W 0,0
01.06.2020 21:00:00 22,1 14,2 4 2 14 8 W 0,0
01.06.2020 20:00:00 22,6 15,2 8 4 16 9 SW -
01.06.2020 19:00:00 23,1 15,7 8 4 20 11 SW 0,0
01.06.2020 18:00:00 23,4 15,7 9 5 20 11 SW 0,0
01.06.2020 17:00:00 24,6 15,0 10 5 25 14 SW 0,0
01.06.2020 16:00:00 24,8 13,7 11 6 24 13 SSW 0,0
01.06.2020 15:00:00 24,9 14,6 11 6 22 12 SSW 0,0
01.06.2020 14:00:00 24,8 15,7 8 4 18 10 SSW -
01.06.2020 13:00:00 24,7 16,1 9 5 20 11 SSW 0,0
01.06.2020 12:00:00 25,1 13,7 3 2 10 6 SSW 0,0
01.06.2020 11:00:00 24,0 15,0 6 3 10 5 S 0,0
01.06.2020 10:00:00 24,3 13,0 4 2 13 7 E 0,0
01.06.2020 09:00:00 21,7 11,7 9 5 17 9 NNE 0,0
01.06.2020 08:00:00 20,1 13,6 6 3 19 10 N -
01.06.2020 07:00:00 19,2 14,0 8 5 16 9 NNW 0,0
01.06.2020 06:00:00 18,7 14,6 4 2 10 6 N 0,0
01.06.2020 05:00:00 18,9 14,8 4 2 14 8 N 0,0
01.06.2020 04:00:00 18,9 14,8 5 3 12 6 N 0,0

tt = temperature
td = dewpoint
ff = wind speed
fx = gusts
dd = wind direction
rr = precipitation

Next stations